Terminal Aerodrome Forecast
Issued by NWS Shreveport, LA

Current Version | Previous Version | Text Only | Print | Product List | Glossary On
Versions: 1 2 3 4 5 6 7 8 9 10 11 12 13 14 15 16 17 18
000
FTUS44 KSHV 231121
TAFTYR
TAF
KTYR 231121Z 2312/2412 00000KT P6SM SKC
      TEMPO 2312/2315 4SM BR
     FM231500 13006KT P6SM SCT025
     FM231800 13007KT P6SM SCT040
     FM240000 13006KT P6SM SCT050
     FM241000 16004KT 4SM BR SKC=

USA.gov is the U.S. government's official web portal to all federal, state and local government web resources and services.